createdAt,value
2018-04-13T00:00:58.430Z,23.17
2018-04-13T00:03:25.870Z,22.80
2018-04-13T00:05:53.346Z,22.90
2018-04-13T00:08:20.892Z,22.03
2018-04-13T00:10:48.333Z,23.17
2018-04-13T00:13:16.542Z,23.80
2018-04-13T00:15:44.011Z,22.47
2018-04-13T00:18:11.466Z,22.70
2018-04-13T00:20:38.914Z,22.37
2018-04-13T00:23:06.355Z,22.17
2018-04-13T00:25:34.578Z,23.17
2018-04-13T00:28:02.017Z,23.03
2018-04-13T00:30:29.483Z,24.17
2018-04-13T00:32:56.935Z,21.90
2018-04-13T00:35:24.381Z,22.03
2018-04-13T00:37:52.598Z,21.87
2018-04-13T00:40:20.041Z,21.20
2018-04-13T00:42:47.494Z,22.87
2018-04-13T00:45:14.943Z,21.90
2018-04-13T00:47:43.155Z,24.00
2018-04-13T00:50:10.603Z,21.63
2018-04-13T00:52:38.059Z,22.67
2018-04-13T00:55:05.496Z,23.87
2018-04-13T00:57:33.715Z,21.00
2018-04-13T01:00:01.162Z,23.00
2018-04-13T01:02:28.613Z,22.23
2018-04-13T01:04:56.055Z,22.30
2018-04-13T01:07:24.324Z,21.00
2018-04-13T01:09:51.729Z,22.40
2018-04-13T01:12:19.180Z,25.73
2018-04-13T01:14:46.611Z,22.20
2018-04-13T01:17:14.834Z,22.17
2018-04-13T01:19:42.274Z,21.60
2018-04-13T01:22:09.727Z,22.73
2018-04-13T01:24:37.934Z,21.70
2018-04-13T01:27:05.407Z,23.43
2018-04-13T01:29:32.843Z,22.60
2018-04-13T01:32:00.305Z,19.97
2018-04-13T01:34:27.737Z,21.90
2018-04-13T01:36:55.955Z,20.40
2018-04-13T01:39:23.413Z,22.10
2018-04-13T01:41:50.858Z,23.70
2018-04-13T01:44:19.066Z,21.83
2018-04-13T01:46:46.511Z,22.77
2018-04-13T01:49:13.959Z,22.50
2018-04-13T01:51:41.401Z,23.47
2018-04-13T01:54:09.615Z,23.83
2018-04-13T01:56:37.054Z,22.17
2018-04-13T01:59:04.510Z,22.13
2018-04-13T02:01:32.718Z,22.00
2018-04-13T02:04:00.175Z,22.30
2018-04-13T02:06:27.610Z,21.60
2018-04-13T02:08:55.071Z,22.17
2018-04-13T02:11:23.670Z,22.37
2018-04-13T02:13:51.877Z,22.03
2018-04-13T02:16:19.315Z,22.77
2018-04-13T02:18:46.772Z,23.17
2018-04-13T02:21:14.219Z,23.20
2018-04-13T02:23:42.439Z,21.40
2018-04-13T02:26:09.883Z,22.73
2018-04-13T02:28:37.339Z,22.30
2018-04-13T02:31:04.779Z,22.40
2018-04-13T02:33:32.995Z,23.80
2018-04-13T02:36:00.440Z,21.07
2018-04-13T02:38:27.905Z,23.23
2018-04-13T02:40:55.336Z,22.07
2018-04-13T02:43:23.542Z,21.40
2018-04-13T02:45:51.002Z,23.00
2018-04-13T02:48:18.478Z,23.83
2018-04-13T02:50:45.954Z,23.20
2018-04-13T02:53:13.400Z,23.00
2018-04-13T02:55:40.855Z,22.63
2018-04-13T02:58:08.331Z,23.10
2018-04-13T03:00:35.779Z,22.73
2018-04-13T03:03:03.227Z,23.13
2018-04-13T03:05:30.674Z,23.53
2018-04-13T03:07:58.887Z,21.07
2018-04-13T03:10:26.347Z,20.70
2018-04-13T03:12:53.838Z,20.60
2018-04-13T03:15:21.299Z,20.63
2018-04-13T03:17:48.730Z,20.60
2018-04-13T03:20:16.190Z,21.03
2018-04-13T03:22:43.631Z,20.67
2018-04-13T03:25:11.095Z,20.63
2018-04-13T03:27:39.301Z,21.63
2018-04-13T03:30:06.761Z,21.47
2018-04-13T03:32:34.318Z,22.07
2018-04-13T03:35:01.759Z,23.53
2018-04-13T03:37:29.197Z,21.93
2018-04-13T03:39:57.419Z,21.83
2018-04-13T03:42:24.914Z,23.53
2018-04-13T03:44:52.345Z,20.77
2018-04-13T03:47:19.789Z,21.57
2018-04-13T03:49:47.233Z,22.23
2018-04-13T03:52:15.450Z,22.80
2018-04-13T03:54:42.896Z,22.67
2018-04-13T03:57:10.342Z,23.00
2018-04-13T03:59:37.786Z,22.30
2018-04-13T04:02:06.036Z,22.13
2018-04-13T04:04:33.459Z,22.23
2018-04-13T04:07:00.895Z,23.00
2018-04-13T04:09:29.098Z,21.80
2018-04-13T04:11:56.551Z,23.20
2018-04-13T04:14:23.990Z,21.80
2018-04-13T04:16:52.208Z,20.50
2018-04-13T04:19:19.692Z,21.70
2018-04-13T04:21:59.042Z,22.00
2018-04-13T04:24:38.354Z,22.00
2018-04-13T04:27:06.614Z,22.27
2018-04-13T04:29:34.050Z,21.57
2018-04-13T04:32:01.526Z,23.30
2018-04-13T04:34:28.965Z,23.50
2018-04-13T04:36:57.181Z,21.73
2018-04-13T04:39:24.628Z,24.67
2018-04-13T04:41:52.062Z,23.73
2018-04-13T04:44:20.283Z,26.27
2018-04-13T04:46:47.783Z,25.40
2018-04-13T04:49:15.223Z,23.53
2018-04-13T04:51:42.679Z,23.60
2018-04-13T04:54:10.130Z,24.10
2018-04-13T04:56:37.576Z,24.03
2018-04-13T04:59:05.068Z,25.80
2018-04-13T05:01:32.498Z,24.93
2018-04-13T05:03:59.955Z,26.63
2018-04-13T05:06:27.405Z,26.90
2018-04-13T05:08:55.623Z,25.67
2018-04-13T05:11:23.075Z,24.33
2018-04-13T05:13:50.514Z,25.33
2018-04-13T05:16:17.971Z,24.60
2018-04-13T05:18:45.428Z,29.20
2018-04-13T05:21:12.904Z,28.70
2018-04-13T05:23:40.344Z,27.60
2018-04-13T05:26:08.548Z,27.67
2018-04-13T05:28:35.994Z,28.90
2018-04-13T05:31:03.437Z,27.00
2018-04-13T05:33:31.666Z,28.50
2018-04-13T05:35:59.108Z,29.00
2018-04-13T05:38:26.567Z,29.00
2018-04-13T05:40:54.011Z,28.60
2018-04-13T05:43:22.230Z,28.40
2018-04-13T05:45:49.686Z,27.27
2018-04-13T05:48:17.135Z,29.27
2018-04-13T05:50:44.590Z,29.90
2018-04-13T05:53:12.040Z,30.00
2018-04-13T05:55:39.498Z,28.50
2018-04-13T05:58:07.706Z,29.83
2018-04-13T06:00:35.162Z,28.83
2018-04-13T06:03:02.609Z,30.30
2018-04-13T06:05:30.066Z,28.53
2018-04-13T06:07:57.506Z,30.17
2018-04-13T06:10:25.731Z,30.30
2018-04-13T06:12:53.183Z,32.20
2018-04-13T06:15:20.651Z,32.37
2018-04-13T06:17:48.097Z,33.00
2018-04-13T06:20:15.554Z,36.10
2018-04-13T06:22:42.990Z,33.50
2018-04-13T06:25:11.233Z,36.73
2018-04-13T06:27:38.666Z,35.50
2018-04-13T06:30:06.123Z,36.83
2018-04-13T06:32:33.554Z,36.97
2018-04-13T06:35:01.820Z,38.07
2018-04-13T06:37:29.258Z,39.80
2018-04-13T06:39:56.714Z,38.70
2018-04-13T06:42:24.164Z,43.80
2018-04-13T06:44:51.604Z,44.63
2018-04-13T06:47:19.690Z,46.37
2018-04-13T06:49:47.139Z,47.00
2018-04-13T06:52:14.590Z,47.10
2018-04-13T06:54:42.034Z,45.43
2018-04-13T06:57:10.267Z,49.20
2018-04-13T06:59:37.710Z,46.03
2018-04-13T07:02:05.174Z,46.27
2018-04-13T07:04:32.610Z,46.30
2018-04-13T07:07:00.826Z,46.03
2018-04-13T07:09:28.286Z,45.00
2018-04-13T07:11:55.730Z,44.50
2018-04-13T07:14:23.859Z,45.33
2018-04-13T07:16:51.314Z,43.53
2018-04-13T07:19:18.803Z,43.40
2018-04-13T07:21:46.238Z,43.37
2018-04-13T07:24:13.683Z,43.97
2018-04-13T07:26:41.168Z,44.57
2018-04-13T07:29:08.583Z,43.47
2018-04-13T07:31:36.116Z,43.60
2018-04-13T07:34:03.499Z,43.07
2018-04-13T07:36:30.955Z,41.47
2018-04-13T07:38:58.394Z,39.80
2018-04-13T07:41:26.609Z,38.00
2018-04-13T07:43:54.057Z,37.83
2018-04-13T07:46:21.512Z,37.93
2018-04-13T07:48:48.979Z,35.13
2018-04-13T07:51:16.418Z,36.83
2018-04-13T07:53:44.634Z,34.40
2018-04-13T07:56:12.123Z,33.87
2018-04-13T07:58:39.756Z,32.60
2018-04-13T08:01:07.238Z,33.03
2018-04-13T08:03:34.698Z,30.23
2018-04-13T08:06:02.146Z,29.93
2018-04-13T08:08:29.603Z,32.27
2018-04-13T08:10:57.061Z,31.70
2018-04-13T08:13:24.554Z,30.83
2018-04-13T08:15:51.998Z,31.27
2018-04-13T08:18:19.446Z,30.90
2018-04-13T08:20:46.933Z,31.67
2018-04-13T08:23:14.458Z,29.57
2018-04-13T08:25:42.687Z,31.70
2018-04-13T08:28:10.951Z,28.07
2018-04-13T08:30:38.418Z,26.47
2018-04-13T08:33:05.875Z,27.30
2018-04-13T08:35:33.394Z,24.63
2018-04-13T08:38:00.806Z,25.33
2018-04-13T08:40:28.241Z,25.33
2018-04-13T08:42:55.688Z,24.13
2018-04-13T08:45:23.185Z,23.10
2018-04-13T08:47:50.643Z,23.23
2018-04-13T08:50:18.102Z,23.83
2018-04-13T08:52:45.558Z,22.10
2018-04-13T08:55:13.027Z,23.20
2018-04-13T08:57:40.499Z,23.37
2018-04-13T09:00:07.954Z,22.67
2018-04-13T09:02:35.398Z,21.30
2018-04-13T09:05:02.846Z,19.93
2018-04-13T09:07:30.285Z,21.30
2018-04-13T09:09:58.520Z,21.10
2018-04-13T09:12:25.946Z,22.83
2018-04-13T09:14:53.445Z,22.47
2018-04-13T09:17:20.906Z,21.20
2018-04-13T09:19:48.462Z,22.20
2018-04-13T09:22:15.897Z,23.60
2018-04-13T09:24:43.379Z,24.03
2018-04-13T09:27:10.815Z,21.27
2018-04-13T09:29:38.307Z,22.87
2018-04-13T09:32:05.762Z,22.20
2018-04-13T09:34:33.222Z,21.30
2018-04-13T09:37:00.667Z,21.57
2018-04-13T09:39:28.139Z,23.10
2018-04-13T09:41:55.579Z,21.30
2018-04-13T09:44:23.076Z,21.10
2018-04-13T09:46:50.476Z,23.00
2018-04-13T09:49:18.704Z,20.27
2018-04-13T09:51:46.153Z,17.30
2018-04-13T09:54:13.594Z,20.93
2018-04-13T09:56:41.055Z,21.67
2018-04-13T09:59:08.498Z,21.87
2018-04-13T10:01:39.568Z,21.20
2018-04-13T10:04:12.950Z,20.47
2018-04-13T10:06:41.198Z,21.37
2018-04-13T10:09:08.639Z,20.03
2018-04-13T10:11:36.091Z,21.37
2018-04-13T10:14:03.548Z,22.80
2018-04-13T10:16:30.987Z,21.40
2018-04-13T10:18:58.431Z,22.13
2018-04-13T10:21:26.652Z,21.80
2018-04-13T10:23:54.092Z,21.13
2018-04-13T10:26:21.542Z,21.23
2018-04-13T10:28:48.982Z,20.60
2018-04-13T10:31:17.205Z,20.33
2018-04-13T10:33:44.646Z,20.03
2018-04-13T10:36:12.106Z,18.80
2018-04-13T10:38:39.580Z,20.20
2018-04-13T10:41:07.023Z,18.43
2018-04-13T10:43:34.470Z,17.90
2018-04-13T10:46:02.710Z,19.33
2018-04-13T10:48:30.177Z,21.07
2018-04-13T10:50:57.622Z,20.07
2018-04-13T10:53:25.069Z,20.40
2018-04-13T10:55:52.514Z,21.03
2018-04-13T10:58:19.984Z,20.93
2018-04-13T11:00:47.427Z,22.23
2018-04-13T11:03:16.203Z,21.07
2018-04-13T11:05:43.659Z,21.47
2018-04-13T11:08:11.114Z,22.27
2018-04-13T11:10:38.611Z,21.83
2018-04-13T11:13:06.091Z,23.27
2018-04-13T11:15:33.545Z,23.33
2018-04-13T11:18:00.996Z,23.50
2018-04-13T11:20:28.438Z,23.40
2018-04-13T11:22:56.666Z,22.33
2018-04-13T11:25:24.118Z,22.70
2018-04-13T11:27:51.575Z,22.70
2018-04-13T11:30:19.009Z,24.57
2018-04-13T11:32:47.222Z,23.80
2018-04-13T11:35:14.674Z,23.83
2018-04-13T11:37:42.123Z,24.07
2018-04-13T11:40:09.557Z,24.87
2018-04-13T11:42:37.784Z,24.50
2018-04-13T11:45:05.226Z,23.90
2018-04-13T11:47:32.680Z,22.63
2018-04-13T11:50:00.127Z,23.50
2018-04-13T11:52:28.338Z,24.37
2018-04-13T11:54:55.868Z,22.17
2018-04-13T11:57:24.180Z,23.33
2018-04-13T11:59:51.620Z,24.37
2018-04-13T12:02:19.806Z,24.10
2018-04-13T12:04:47.273Z,26.37
2018-04-13T12:07:14.709Z,26.67
2018-04-13T12:09:42.943Z,25.80
2018-04-13T12:12:10.392Z,26.17
2018-04-13T12:14:37.858Z,26.13
2018-04-13T12:17:05.299Z,26.70
2018-04-13T12:19:32.755Z,26.33
2018-04-13T12:22:00.194Z,27.30
2018-04-13T12:24:28.504Z,27.23
2018-04-13T12:26:55.930Z,25.70
2018-04-13T12:29:24.158Z,23.07
2018-04-13T12:31:51.650Z,27.13
2018-04-13T12:34:19.106Z,24.60
2018-04-13T12:36:46.554Z,28.17
2018-04-13T12:39:14.007Z,27.87
2018-04-13T12:41:41.450Z,28.33
2018-04-13T12:44:08.908Z,30.17
2018-04-13T12:46:36.351Z,29.17
2018-04-13T12:49:04.678Z,29.30
2018-04-13T12:51:32.082Z,28.47
2018-04-13T12:54:00.324Z,28.23
2018-04-13T12:56:27.767Z,22.17
2018-04-13T12:58:55.234Z,28.20
2018-04-13T13:01:22.744Z,26.73
2018-04-13T13:03:50.956Z,28.30
2018-04-13T13:06:18.403Z,27.47
2018-04-13T13:08:45.882Z,30.40
2018-04-13T13:11:14.067Z,29.40
2018-04-13T13:13:41.510Z,29.17
2018-04-13T13:16:08.958Z,28.27
2018-04-13T13:18:37.170Z,27.87
2018-04-13T13:21:04.638Z,27.97
2018-04-13T13:23:32.084Z,27.20
2018-04-13T13:25:59.537Z,25.80
2018-04-13T13:28:26.974Z,17.93
2018-04-13T13:30:55.195Z,16.97
2018-04-13T13:33:22.640Z,15.60
2018-04-13T13:35:50.090Z,14.70
2018-04-13T13:38:17.534Z,13.17
2018-04-13T13:40:45.767Z,12.70
2018-04-13T13:43:13.205Z,11.33
2018-04-13T13:45:40.663Z,12.53
2018-04-13T13:48:08.108Z,14.87
2018-04-13T13:50:36.331Z,11.60
2018-04-13T13:53:03.873Z,11.00
2018-04-13T13:55:31.307Z,12.50
2018-04-13T13:57:59.526Z,11.33
2018-04-13T14:00:26.974Z,13.50
2018-04-13T14:02:54.424Z,12.93
2018-04-13T14:05:21.862Z,12.87
2018-04-13T14:07:50.083Z,11.83
2018-04-13T14:10:17.529Z,11.10
2018-04-13T14:12:44.985Z,11.30
2018-04-13T14:15:12.422Z,11.70
2018-04-13T14:17:40.640Z,12.20
2018-04-13T14:20:08.099Z,12.53
2018-04-13T14:22:36.443Z,12.07
2018-04-13T14:25:03.846Z,12.40
2018-04-13T14:27:31.296Z,11.57
2018-04-13T14:29:58.734Z,11.77
2018-04-13T14:32:26.955Z,16.37
2018-04-13T14:34:54.407Z,19.60
2018-04-13T14:37:21.863Z,19.50
2018-04-13T14:39:49.319Z,16.97
2018-04-13T14:42:16.758Z,15.17
2018-04-13T14:44:44.969Z,16.37
2018-04-13T14:47:12.422Z,15.60
2018-04-13T14:49:39.865Z,15.63
2018-04-13T14:52:07.310Z,15.53
2018-04-13T14:54:35.538Z,17.40
2018-04-13T14:57:03.027Z,16.90
2018-04-13T14:59:30.482Z,18.57
2018-04-13T15:01:57.975Z,16.50
2018-04-13T15:04:26.186Z,18.70
2018-04-13T15:06:53.646Z,20.23
2018-04-13T15:09:21.103Z,18.50
2018-04-13T15:11:48.542Z,19.20
2018-04-13T15:14:16.761Z,20.63
2018-04-13T15:16:44.201Z,23.07
2018-04-13T15:19:11.655Z,21.30
2018-04-13T15:21:39.102Z,21.37
2018-04-13T15:24:07.319Z,21.17
2018-04-13T15:26:34.754Z,18.30
2018-04-13T15:29:02.224Z,20.77
2018-04-13T15:31:29.667Z,20.60
2018-04-13T15:33:57.155Z,21.90
2018-04-13T15:36:24.586Z,20.53
2018-04-13T15:38:52.802Z,22.27
2018-04-13T15:41:20.234Z,21.10
2018-04-13T15:43:48.473Z,21.87
2018-04-13T15:46:15.933Z,20.80
2018-04-13T15:48:43.427Z,22.10
2018-04-13T15:51:10.831Z,20.70
2018-04-13T15:53:38.283Z,20.57
2018-04-13T15:56:05.729Z,21.60
2018-04-13T15:58:33.172Z,20.93
2018-04-13T16:01:01.391Z,21.17
2018-04-13T16:03:28.945Z,21.97
2018-04-13T16:05:56.385Z,20.80
2018-04-13T16:08:24.598Z,22.73
2018-04-13T16:10:52.060Z,22.57
2018-04-13T16:13:19.490Z,22.03
2018-04-13T16:15:46.955Z,21.30
2018-04-13T16:18:14.403Z,21.80
2018-04-13T16:20:41.859Z,19.87
2018-04-13T16:23:10.068Z,20.57
2018-04-13T16:25:37.516Z,21.20
2018-04-13T16:28:04.960Z,19.87
2018-04-13T16:30:33.184Z,21.53
2018-04-13T16:33:00.639Z,19.87
2018-04-13T16:35:28.097Z,18.50
2018-04-13T16:37:55.526Z,19.70
2018-04-13T16:40:23.746Z,18.53
2018-04-13T16:42:51.187Z,20.60
2018-04-13T16:45:18.641Z,19.20
2018-04-13T16:47:46.099Z,20.00
2018-04-13T16:50:13.566Z,19.57
2018-04-13T16:52:41.770Z,18.70
2018-04-13T16:55:09.223Z,19.20
2018-04-13T16:57:36.683Z,17.30
2018-04-13T17:00:04.114Z,18.70
2018-04-13T17:02:32.336Z,19.20
2018-04-13T17:04:59.796Z,18.63
2018-04-13T17:07:27.343Z,16.70
2018-04-13T17:09:54.845Z,18.03
2018-04-13T17:12:22.282Z,17.90
2018-04-13T17:14:49.725Z,18.50
2018-04-13T17:17:17.171Z,18.20
2018-04-13T17:19:44.610Z,16.70
2018-04-13T17:22:12.830Z,17.37
2018-04-13T17:24:40.802Z,18.67
2018-04-13T17:27:08.258Z,18.00
2018-04-13T17:29:35.698Z,17.57
2018-04-13T17:32:03.927Z,16.70
2018-04-13T17:34:31.366Z,17.90
2018-04-13T17:36:58.822Z,19.27
2018-04-13T17:39:26.277Z,17.80
2018-04-13T17:41:53.741Z,18.77
2018-04-13T17:44:21.199Z,21.07
2018-04-13T17:46:48.649Z,20.63
2018-04-13T17:49:16.949Z,20.87
2018-04-13T17:51:44.404Z,20.67
2018-04-13T17:54:11.860Z,22.37
2018-04-13T17:56:40.050Z,21.50
2018-04-13T17:59:07.507Z,21.50
2018-04-13T18:01:34.955Z,23.00
2018-04-13T18:04:03.182Z,22.70
2018-04-13T18:06:31.391Z,24.27
2018-04-13T18:08:59.610Z,23.90
2018-04-13T18:11:27.051Z,26.43
2018-04-13T18:13:54.505Z,25.70
2018-04-13T18:16:22.711Z,26.90
2018-04-13T18:18:50.171Z,26.60
2018-04-13T18:21:17.615Z,25.63
2018-04-13T18:23:45.832Z,25.73
2018-04-13T18:26:13.270Z,25.70
2018-04-13T18:28:40.723Z,27.10
2018-04-13T18:31:08.154Z,26.43
2018-04-13T18:33:36.379Z,26.57
2018-04-13T18:36:03.824Z,28.80
2018-04-13T18:38:31.279Z,27.43
2018-04-13T18:40:58.719Z,29.77
2018-04-13T18:43:26.172Z,29.13
2018-04-13T18:45:53.625Z,27.90
2018-04-13T18:48:21.076Z,29.90
2018-04-13T18:50:48.515Z,30.73
2018-04-13T18:53:16.061Z,30.80
2018-04-13T18:55:43.514Z,31.83
2018-04-13T18:58:10.983Z,32.30
2018-04-13T19:00:39.166Z,33.47
2018-04-13T19:03:06.614Z,34.30
2018-04-13T19:05:34.070Z,34.13
2018-04-13T19:08:01.510Z,33.27
2018-04-13T19:10:28.963Z,33.13
2018-04-13T19:12:56.403Z,34.00
2018-04-13T19:15:23.936Z,34.07
2018-04-13T19:17:51.365Z,33.80
2018-04-13T19:20:19.579Z,34.17
2018-04-13T19:22:47.014Z,34.63
2018-04-13T19:25:15.244Z,36.07
2018-04-13T19:27:42.691Z,36.20
2018-04-13T19:30:10.145Z,35.60
2018-04-13T19:32:37.601Z,36.37
2018-04-13T19:35:05.034Z,34.17
2018-04-13T19:37:33.246Z,35.60
2018-04-13T19:40:00.707Z,35.47
2018-04-13T19:42:28.148Z,35.30
2018-04-13T19:44:55.603Z,36.53
2018-04-13T19:47:23.055Z,35.60
2018-04-13T19:49:51.365Z,36.40
2018-04-13T19:52:18.795Z,35.90
2018-04-13T19:54:47.012Z,36.30
2018-04-13T19:57:14.451Z,37.37
2018-04-13T19:59:41.920Z,36.30
2018-04-13T20:02:09.362Z,35.53
2018-04-13T20:04:37.567Z,36.43
2018-04-13T20:07:05.020Z,36.30
2018-04-13T20:09:32.460Z,34.70
2018-04-13T20:12:00.670Z,36.07
2018-04-13T20:14:28.127Z,37.10
2018-04-13T20:16:55.571Z,35.70
2018-04-13T20:19:23.016Z,35.20
2018-04-13T20:21:51.254Z,34.63
2018-04-13T20:24:18.718Z,38.40
2018-04-13T20:26:46.168Z,36.23
2018-04-13T20:29:13.619Z,36.13
2018-04-13T20:31:41.062Z,38.07
2018-04-13T20:34:08.494Z,36.40
2018-04-13T20:36:36.722Z,34.60
2018-04-13T20:39:04.178Z,37.03
2018-04-13T20:41:31.647Z,37.03
2018-04-13T20:43:59.183Z,35.87
2018-04-13T20:46:26.639Z,37.67
2018-04-13T20:48:54.861Z,35.70
2018-04-13T20:51:22.314Z,36.57
2018-04-13T20:53:49.762Z,37.03
2018-04-13T20:56:17.224Z,36.10
2018-04-13T20:58:44.698Z,36.87
2018-04-13T21:01:12.134Z,35.43
2018-04-13T21:03:39.582Z,36.67
2018-04-13T21:06:07.887Z,36.90
2018-04-13T21:08:35.324Z,34.83
2018-04-13T21:11:03.534Z,36.13
2018-04-13T21:13:30.996Z,38.37
2018-04-13T21:15:58.446Z,36.53
2018-04-13T21:18:25.894Z,36.20
2018-04-13T21:20:53.335Z,36.57
2018-04-13T21:23:21.563Z,38.90
2018-04-13T21:25:49.026Z,36.70
2018-04-13T21:28:16.480Z,39.67
2018-04-13T21:30:43.922Z,35.20
2018-04-13T21:33:11.370Z,36.03
2018-04-13T21:35:39.584Z,36.23
2018-04-13T21:38:07.051Z,37.17
2018-04-13T21:40:34.500Z,39.07
2018-04-13T21:43:02.876Z,37.50
2018-04-13T21:45:30.335Z,37.20
2018-04-13T21:47:57.790Z,37.73
2018-04-13T21:50:25.234Z,36.97
2018-04-13T21:52:53.450Z,36.40
2018-04-13T21:55:20.887Z,37.77
2018-04-13T21:57:48.335Z,38.43
2018-04-13T22:00:17.056Z,36.60
2018-04-13T22:02:44.502Z,39.37
2018-04-13T22:05:11.946Z,37.20
2018-04-13T22:07:40.166Z,39.30
2018-04-13T22:10:07.717Z,40.37
2018-04-13T22:12:47.025Z,40.40
2018-04-13T22:15:15.228Z,38.07
2018-04-13T22:17:42.690Z,38.67
2018-04-13T22:20:10.134Z,37.17
2018-04-13T22:22:38.348Z,37.53
2018-04-13T22:25:05.783Z,39.10
2018-04-13T22:27:33.251Z,38.13
2018-04-13T22:30:00.699Z,38.20
2018-04-13T22:32:28.143Z,39.17
2018-04-13T22:34:56.358Z,39.07
2018-04-13T22:37:23.808Z,38.87
2018-04-13T22:39:51.273Z,40.10
2018-04-13T22:42:18.700Z,40.67
2018-04-13T22:44:46.935Z,39.13
2018-04-13T22:47:14.374Z,40.53
2018-04-13T22:49:41.827Z,39.43
2018-04-13T22:52:09.270Z,39.27
2018-04-13T22:54:37.482Z,38.70
2018-04-13T22:57:04.931Z,40.73
2018-04-13T22:59:32.500Z,40.27
2018-04-13T23:01:59.936Z,40.97
2018-04-13T23:04:28.155Z,39.00
2018-04-13T23:06:55.622Z,39.77
2018-04-13T23:09:23.062Z,41.30
2018-04-13T23:11:50.515Z,41.13
2018-04-13T23:14:17.960Z,39.80
2018-04-13T23:16:46.166Z,40.33
2018-04-13T23:19:13.602Z,39.80
2018-04-13T23:21:41.829Z,42.87
2018-04-13T23:24:09.269Z,41.37
2018-04-13T23:26:36.724Z,41.97
2018-04-13T23:29:04.162Z,40.90
2018-04-13T23:31:32.387Z,42.77
2018-04-13T23:33:59.830Z,42.13
2018-04-13T23:36:27.290Z,42.60
2018-04-13T23:38:54.731Z,42.37
2018-04-13T23:41:22.177Z,40.50
2018-04-13T23:43:50.391Z,43.47
2018-04-13T23:46:17.847Z,42.10
2018-04-13T23:48:45.291Z,43.90
2018-04-13T23:51:13.507Z,41.90
2018-04-13T23:53:40.958Z,40.97
2018-04-13T23:56:08.411Z,41.97
2018-04-13T23:58:35.850Z,41.80
